createdAt,value
2019-04-16T00:00:17.634Z,990.32
2019-04-16T00:01:17.621Z,990.34
2019-04-16T00:02:18.755Z,990.36
2019-04-16T00:03:17.656Z,990.37
2019-04-16T00:04:17.599Z,990.34
2019-04-16T00:05:17.579Z,990.35
2019-04-16T00:06:17.566Z,990.41
2019-04-16T00:07:17.557Z,990.40
2019-04-16T00:08:27.238Z,990.38
2019-04-16T00:09:18.548Z,990.32
2019-04-16T00:10:17.526Z,990.34
2019-04-16T00:11:17.515Z,990.37
2019-04-16T00:12:17.522Z,990.39
2019-04-16T00:13:17.502Z,990.39
2019-04-16T00:14:17.531Z,990.41
2019-04-16T00:15:17.471Z,990.44
2019-04-16T00:16:17.459Z,990.39
2019-04-16T00:17:17.451Z,990.42
2019-04-16T00:18:18.755Z,990.37
2019-04-16T00:19:17.460Z,990.38
2019-04-16T00:20:17.451Z,990.43
2019-04-16T00:21:17.417Z,990.42
2019-04-16T00:22:17.408Z,990.39
2019-04-16T00:23:17.386Z,990.43
2019-04-16T00:24:18.523Z,990.44
2019-04-16T00:25:17.381Z,990.42
2019-04-16T00:26:17.400Z,990.46
2019-04-16T00:27:17.348Z,990.48
2019-04-16T00:28:17.332Z,990.47
2019-04-16T00:29:17.331Z,990.39
2019-04-16T00:30:17.327Z,990.48
2019-04-16T00:31:17.302Z,990.46
2019-04-16T00:32:17.336Z,990.42
2019-04-16T00:33:17.285Z,990.40
2019-04-16T00:34:17.276Z,990.44
2019-04-16T00:35:17.271Z,990.49
2019-04-16T00:36:18.146Z,990.44
2019-04-16T00:37:20.504Z,990.43
2019-04-16T00:38:17.265Z,990.41
2019-04-16T00:39:17.231Z,990.42
2019-04-16T00:40:17.226Z,990.42
2019-04-16T00:41:17.196Z,990.38
2019-04-16T00:42:17.191Z,990.42
2019-04-16T00:43:17.175Z,990.43
2019-04-16T00:44:17.203Z,990.43
2019-04-16T00:45:17.166Z,990.40
2019-04-16T00:46:17.144Z,990.37
2019-04-16T00:47:17.155Z,990.40
2019-04-16T00:48:17.141Z,990.43
2019-04-16T00:49:17.118Z,990.44
2019-04-16T00:50:17.169Z,990.44
2019-04-16T00:51:17.096Z,990.42
2019-04-16T00:52:17.088Z,990.46
2019-04-16T00:53:17.072Z,990.37
2019-04-16T00:54:17.058Z,990.38
2019-04-16T00:55:17.091Z,990.42
2019-04-16T00:56:17.061Z,990.48
2019-04-16T00:57:17.965Z,990.45
2019-04-16T00:58:19.508Z,990.48
2019-04-16T00:59:17.006Z,990.48
2019-04-16T01:00:17.011Z,990.53
2019-04-16T01:01:16.988Z,990.52
2019-04-16T01:02:17.002Z,990.45
2019-04-16T01:03:16.966Z,990.54
2019-04-16T01:04:16.955Z,990.44
2019-04-16T01:05:16.953Z,990.52
2019-04-16T01:06:16.935Z,990.51
2019-04-16T01:07:16.924Z,990.44
2019-04-16T01:08:16.949Z,990.55
2019-04-16T01:09:16.911Z,990.50
2019-04-16T01:10:16.914Z,990.48
2019-04-16T01:11:16.879Z,990.52
2019-04-16T01:12:16.873Z,990.45
2019-04-16T01:13:16.864Z,990.48
2019-04-16T01:14:16.895Z,990.50
2019-04-16T01:15:16.853Z,990.53
2019-04-16T01:16:16.827Z,990.50
2019-04-16T01:17:16.816Z,990.52
2019-04-16T01:18:16.806Z,990.53
2019-04-16T01:19:16.796Z,990.46
2019-04-16T01:20:16.844Z,990.51
2019-04-16T01:21:16.776Z,990.49
2019-04-16T01:22:16.917Z,990.51
2019-04-16T01:23:17.810Z,990.61
2019-04-16T01:24:17.496Z,990.51
2019-04-16T01:25:16.742Z,990.52
2019-04-16T01:26:16.757Z,990.52
2019-04-16T01:27:16.711Z,990.51
2019-04-16T01:28:16.704Z,990.47
2019-04-16T01:29:16.690Z,990.46
2019-04-16T01:30:16.703Z,990.53
2019-04-16T01:31:16.673Z,990.50
2019-04-16T01:32:16.706Z,990.59
2019-04-16T01:33:16.649Z,990.55
2019-04-16T01:34:18.161Z,990.55
2019-04-16T01:35:19.011Z,990.59
2019-04-16T01:36:16.626Z,990.51
2019-04-16T01:37:16.609Z,990.54
2019-04-16T01:38:16.623Z,990.53
2019-04-16T01:39:18.224Z,990.56
2019-04-16T01:40:18.752Z,990.49
2019-04-16T01:41:16.578Z,990.47
2019-04-16T01:42:16.557Z,990.48
2019-04-16T01:43:16.542Z,990.53
2019-04-16T01:44:16.574Z,990.53
2019-04-16T01:45:16.521Z,990.53
2019-04-16T01:46:16.522Z,990.54
2019-04-16T01:47:16.513Z,990.57
2019-04-16T01:48:16.511Z,990.53
2019-04-16T01:49:16.479Z,990.64
2019-04-16T01:50:16.492Z,990.52
2019-04-16T01:51:16.468Z,990.65
2019-04-16T01:52:19.064Z,990.60
2019-04-16T01:53:18.301Z,990.60
2019-04-16T01:54:16.428Z,990.56
2019-04-16T01:55:16.417Z,990.61
2019-04-16T01:56:16.470Z,990.59
2019-04-16T01:57:16.395Z,990.58
2019-04-16T01:58:16.386Z,990.62
2019-04-16T01:59:16.382Z,990.54
2019-04-16T02:00:16.364Z,990.58
2019-04-16T02:01:16.363Z,990.53
2019-04-16T02:02:16.384Z,990.59
2019-04-16T02:03:17.813Z,990.60
2019-04-16T02:04:19.529Z,990.58
2019-04-16T02:05:16.319Z,990.58
2019-04-16T02:06:16.385Z,990.56
2019-04-16T02:07:16.299Z,990.61
2019-04-16T02:08:16.278Z,990.58
2019-04-16T02:09:22.727Z,990.66
2019-04-16T02:10:17.266Z,990.62
2019-04-16T02:11:16.258Z,990.67
2019-04-16T02:12:16.242Z,990.73
2019-04-16T02:13:16.230Z,990.70
2019-04-16T02:14:18.476Z,990.79
2019-04-16T02:15:16.229Z,990.72
2019-04-16T02:16:16.216Z,990.70
2019-04-16T02:17:16.185Z,990.73
2019-04-16T02:18:16.184Z,990.77
2019-04-16T02:19:16.163Z,990.73
2019-04-16T02:20:16.155Z,990.68
2019-04-16T02:21:16.178Z,990.66
2019-04-16T02:22:16.131Z,990.76
2019-04-16T02:23:16.706Z,990.67
2019-04-16T02:24:18.592Z,990.72
2019-04-16T02:25:18.772Z,990.67
2019-04-16T02:26:16.113Z,990.71
2019-04-16T02:27:16.143Z,990.69
2019-04-16T02:28:16.077Z,990.64
2019-04-16T02:29:16.056Z,990.66
2019-04-16T02:30:16.052Z,990.70
2019-04-16T02:31:16.436Z,990.74
2019-04-16T02:32:16.045Z,990.72
2019-04-16T02:33:16.064Z,990.78
2019-04-16T02:34:16.014Z,990.71
2019-04-16T02:35:16.026Z,990.64
2019-04-16T02:36:15.988Z,990.73
2019-04-16T02:37:15.982Z,990.70
2019-04-16T02:38:15.962Z,990.69
2019-04-16T02:39:15.989Z,990.68
2019-04-16T02:40:18.335Z,990.67
2019-04-16T02:41:15.934Z,990.69
2019-04-16T02:42:15.936Z,990.59
2019-04-16T02:43:15.911Z,990.66
2019-04-16T02:44:17.077Z,990.60
2019-04-16T02:45:23.016Z,990.61
2019-04-16T02:46:16.875Z,990.62
2019-04-16T02:47:15.883Z,990.68
2019-04-16T02:48:17.354Z,990.65
2019-04-16T02:49:15.849Z,990.69
2019-04-16T02:50:15.841Z,990.69
2019-04-16T02:51:15.851Z,990.68
2019-04-16T02:52:17.324Z,990.62
2019-04-16T02:53:15.807Z,990.61
2019-04-16T02:54:15.811Z,990.62
2019-04-16T02:55:15.791Z,990.62
2019-04-16T02:56:18.766Z,990.65
2019-04-16T02:57:15.817Z,990.63
2019-04-16T02:58:15.755Z,990.61
2019-04-16T02:59:15.740Z,990.70
2019-04-16T03:00:18.473Z,990.65
2019-04-16T03:01:20.410Z,990.58
2019-04-16T03:02:16.716Z,990.57
2019-04-16T03:03:15.745Z,990.54
2019-04-16T03:04:15.686Z,990.51
2019-04-16T03:05:15.676Z,990.53
2019-04-16T03:06:15.665Z,990.55
2019-04-16T03:07:15.664Z,990.50
2019-04-16T03:08:15.644Z,990.57
2019-04-16T03:09:15.667Z,990.53
2019-04-16T03:10:15.639Z,990.45
2019-04-16T03:11:17.121Z,990.51
2019-04-16T03:12:17.546Z,990.49
2019-04-16T03:13:16.594Z,990.48
2019-04-16T03:14:15.624Z,990.44
2019-04-16T03:15:15.596Z,990.39
2019-04-16T03:16:15.563Z,990.37
2019-04-16T03:17:15.589Z,990.40
2019-04-16T03:18:16.185Z,990.43
2019-04-16T03:19:19.259Z,990.37
2019-04-16T03:20:15.519Z,990.37
2019-04-16T03:21:15.563Z,990.28
2019-04-16T03:22:15.505Z,990.30
2019-04-16T03:23:15.485Z,990.37
2019-04-16T03:24:15.476Z,990.35
2019-04-16T03:25:15.468Z,990.36
2019-04-16T03:26:17.531Z,990.32
2019-04-16T03:27:15.478Z,990.33
2019-04-16T03:28:15.432Z,990.33
2019-04-16T03:29:15.500Z,990.32
2019-04-16T03:30:15.750Z,990.31
2019-04-16T03:31:22.231Z,990.28
2019-04-16T03:32:16.735Z,990.31
2019-04-16T03:33:16.017Z,990.29
2019-04-16T03:34:15.368Z,990.25
2019-04-16T03:35:15.360Z,990.30
2019-04-16T03:36:15.347Z,990.31
2019-04-16T03:37:15.336Z,990.30
2019-04-16T03:38:15.344Z,990.32
2019-04-16T03:39:15.361Z,990.30
2019-04-16T03:40:18.290Z,990.32
2019-04-16T03:41:15.300Z,990.29
2019-04-16T03:42:15.284Z,990.34
2019-04-16T03:43:15.283Z,990.33
2019-04-16T03:44:15.261Z,990.36
2019-04-16T03:45:15.293Z,990.35
2019-04-16T03:46:15.245Z,990.32
2019-04-16T03:47:15.780Z,990.29
2019-04-16T03:48:15.481Z,990.33
2019-04-16T03:49:15.208Z,990.34
2019-04-16T03:50:15.216Z,990.38
2019-04-16T03:51:15.214Z,990.32
2019-04-16T03:52:15.181Z,990.33
2019-04-16T03:53:17.583Z,990.39
2019-04-16T03:54:15.157Z,990.33
2019-04-16T03:55:15.154Z,990.32
2019-04-16T03:56:15.139Z,990.31
2019-04-16T03:57:15.224Z,990.30
2019-04-16T03:58:15.310Z,990.34
2019-04-16T03:59:15.323Z,990.33
2019-04-16T04:00:15.316Z,990.34
2019-04-16T04:01:15.559Z,990.31
2019-04-16T04:02:18.923Z,990.34
2019-04-16T04:03:16.127Z,990.38
2019-04-16T04:04:15.072Z,990.37
2019-04-16T04:05:15.067Z,990.38
2019-04-16T04:06:15.031Z,990.38
2019-04-16T04:07:15.029Z,990.42
2019-04-16T04:08:17.608Z,990.45
2019-04-16T04:09:15.035Z,990.40
2019-04-16T04:10:29.034Z,990.39
2019-04-16T04:11:16.007Z,990.40
2019-04-16T04:12:14.970Z,990.40
2019-04-16T04:13:18.586Z,990.42
2019-04-16T04:14:15.007Z,990.45
2019-04-16T04:15:15.068Z,990.44
2019-04-16T04:16:14.924Z,990.46
2019-04-16T04:17:14.913Z,990.40
2019-04-16T04:18:14.922Z,990.46
2019-04-16T04:19:15.997Z,990.41
2019-04-16T04:20:18.161Z,990.43
2019-04-16T04:21:14.927Z,990.44
2019-04-16T04:22:14.862Z,990.46
2019-04-16T04:23:14.863Z,990.50
2019-04-16T04:24:14.841Z,990.48
2019-04-16T04:25:14.847Z,990.49
2019-04-16T04:26:14.820Z,990.48
2019-04-16T04:27:18.637Z,990.48
2019-04-16T04:28:18.465Z,990.42
2019-04-16T04:29:15.874Z,990.41
2019-04-16T04:30:14.781Z,990.42
2019-04-16T04:31:14.771Z,990.46
2019-04-16T04:32:14.755Z,990.44
2019-04-16T04:33:14.826Z,990.47
2019-04-16T04:34:16.956Z,990.48
2019-04-16T04:35:20.159Z,990.46
2019-04-16T04:36:18.709Z,990.48
2019-04-16T04:37:14.702Z,990.46
2019-04-16T04:38:14.693Z,990.44
2019-04-16T04:39:15.804Z,990.47
2019-04-16T04:40:16.258Z,990.48
2019-04-16T04:41:14.658Z,990.52
2019-04-16T04:42:14.648Z,990.55
2019-04-16T04:43:14.639Z,990.52
2019-04-16T04:44:14.643Z,990.55
2019-04-16T04:45:14.643Z,990.53
2019-04-16T04:46:15.605Z,990.57
2019-04-16T04:47:15.533Z,990.55
2019-04-16T04:48:14.586Z,990.56
2019-04-16T04:49:14.585Z,990.63
2019-04-16T04:50:14.565Z,990.61
2019-04-16T04:51:14.619Z,990.71
2019-04-16T04:52:15.211Z,990.71
2019-04-16T04:53:15.656Z,990.71
2019-04-16T04:54:14.534Z,990.75
2019-04-16T04:55:14.511Z,990.80
2019-04-16T04:56:14.500Z,990.78
2019-04-16T04:57:14.523Z,990.80
2019-04-16T04:58:14.481Z,990.79
2019-04-16T04:59:14.481Z,990.79
2019-04-16T05:00:14.463Z,990.89
2019-04-16T05:01:14.447Z,990.83
2019-04-16T05:02:15.446Z,990.81
2019-04-16T05:03:15.534Z,990.91
2019-04-16T05:04:19.274Z,990.87
2019-04-16T05:05:15.404Z,990.89
2019-04-16T05:06:14.395Z,990.85
2019-04-16T05:07:14.384Z,990.87
2019-04-16T05:08:14.373Z,990.89
2019-04-16T05:09:14.424Z,990.90
2019-04-16T05:10:14.357Z,990.91
2019-04-16T05:11:15.837Z,990.90
2019-04-16T05:12:14.338Z,990.96
2019-04-16T05:13:14.320Z,990.91
2019-04-16T05:14:14.417Z,991.00
2019-04-16T05:15:14.335Z,990.92
2019-04-16T05:16:14.298Z,991.02
2019-04-16T05:17:14.288Z,991.04
2019-04-16T05:18:14.270Z,991.14
2019-04-16T05:19:15.665Z,991.19
2019-04-16T05:20:15.450Z,991.16
2019-04-16T05:21:17.841Z,991.22
2019-04-16T05:22:14.231Z,991.25
2019-04-16T05:23:14.250Z,991.22
2019-04-16T05:24:14.204Z,991.22
2019-04-16T05:25:14.222Z,991.22
2019-04-16T05:26:14.310Z,991.21
2019-04-16T05:27:14.235Z,991.10
2019-04-16T05:28:14.253Z,991.17
2019-04-16T05:29:17.150Z,991.17
2019-04-16T05:30:14.310Z,991.17
2019-04-16T05:31:14.347Z,991.20
2019-04-16T05:32:14.121Z,991.19
2019-04-16T05:33:14.150Z,991.15
2019-04-16T05:34:17.197Z,991.19
2019-04-16T05:35:14.128Z,991.19
2019-04-16T05:36:15.319Z,991.12
2019-04-16T05:37:16.675Z,991.14
2019-04-16T05:38:15.060Z,991.15
2019-04-16T05:39:14.100Z,991.14
2019-04-16T05:40:14.068Z,991.11
2019-04-16T05:41:20.517Z,991.12
2019-04-16T05:42:15.208Z,991.12
2019-04-16T05:43:14.085Z,991.18
2019-04-16T05:44:13.997Z,991.18
2019-04-16T05:45:13.995Z,991.18
2019-04-16T05:46:14.017Z,991.16
2019-04-16T05:47:16.827Z,991.15
2019-04-16T05:48:13.955Z,991.16
2019-04-16T05:49:13.957Z,991.16
2019-04-16T05:50:13.958Z,991.20
2019-04-16T05:51:13.923Z,991.14
2019-04-16T05:52:13.963Z,991.18
2019-04-16T05:53:14.044Z,991.19
2019-04-16T05:54:13.891Z,991.16
2019-04-16T05:55:17.659Z,991.18
2019-04-16T05:56:13.869Z,991.19
2019-04-16T05:57:13.871Z,991.22
2019-04-16T05:58:13.918Z,991.21
2019-04-16T05:59:13.836Z,991.27
2019-04-16T06:00:14.055Z,991.21
2019-04-16T06:01:14.413Z,991.24
2019-04-16T06:02:15.081Z,991.27
2019-04-16T06:03:13.793Z,991.25
2019-04-16T06:04:13.822Z,991.31
2019-04-16T06:05:13.787Z,991.26
2019-04-16T06:06:13.794Z,991.24
2019-04-16T06:07:13.841Z,991.21
2019-04-16T06:08:13.741Z,991.27
2019-04-16T06:09:13.736Z,991.26
2019-04-16T06:10:17.533Z,991.30
2019-04-16T06:11:27.638Z,991.23
2019-04-16T06:12:14.696Z,991.32
2019-04-16T06:13:13.687Z,991.30
2019-04-16T06:14:17.600Z,991.26
2019-04-16T06:15:14.711Z,991.28
2019-04-16T06:16:13.688Z,991.28
2019-04-16T06:17:13.664Z,991.27
2019-04-16T06:18:13.870Z,991.28
2019-04-16T06:19:13.625Z,991.26
2019-04-16T06:20:19.052Z,991.28
2019-04-16T06:21:14.600Z,991.19
2019-04-16T06:22:13.590Z,991.21
2019-04-16T06:23:13.614Z,991.19
2019-04-16T06:24:13.568Z,991.15
2019-04-16T06:25:13.696Z,991.18
2019-04-16T06:26:16.338Z,991.15
2019-04-16T06:27:13.542Z,991.23
2019-04-16T06:28:13.539Z,991.18
2019-04-16T06:29:13.715Z,991.22
2019-04-16T06:30:13.516Z,991.20
2019-04-16T06:31:13.494Z,991.30
2019-04-16T06:32:13.490Z,991.25
2019-04-16T06:33:13.481Z,991.30
2019-04-16T06:34:13.871Z,991.24
2019-04-16T06:35:13.527Z,991.30
2019-04-16T06:36:13.448Z,991.31
2019-04-16T06:37:13.433Z,991.25
2019-04-16T06:38:13.422Z,991.28
2019-04-16T06:39:13.412Z,991.26
2019-04-16T06:40:13.422Z,991.21
2019-04-16T06:41:13.408Z,991.24
2019-04-16T06:42:13.383Z,991.25
2019-04-16T06:43:13.365Z,991.22
2019-04-16T06:44:13.361Z,991.21
2019-04-16T06:45:13.345Z,991.20
2019-04-16T06:46:13.345Z,991.26
2019-04-16T06:47:13.344Z,991.17
2019-04-16T06:48:13.983Z,991.09
2019-04-16T06:49:14.353Z,991.07
2019-04-16T06:50:13.408Z,991.13
2019-04-16T06:51:13.308Z,991.11
2019-04-16T06:52:16.637Z,991.08
2019-04-16T06:53:13.282Z,991.05
2019-04-16T06:54:13.278Z,991.07
2019-04-16T06:55:13.283Z,991.01
2019-04-16T06:56:13.288Z,991.02
2019-04-16T06:57:13.215Z,991.08
2019-04-16T06:58:16.644Z,991.06
2019-04-16T06:59:16.685Z,991.06
2019-04-16T07:00:13.209Z,991.05
2019-04-16T07:01:13.181Z,991.11
2019-04-16T07:02:13.165Z,990.98
2019-04-16T07:03:13.149Z,990.99
2019-04-16T07:04:13.154Z,991.00
2019-04-16T07:05:13.146Z,990.93
2019-04-16T07:06:13.208Z,991.07
2019-04-16T07:07:13.105Z,991.11
2019-04-16T07:08:17.894Z,991.13
2019-04-16T07:09:14.085Z,990.99
2019-04-16T07:10:13.077Z,991.20
2019-04-16T07:11:13.080Z,991.08
2019-04-16T07:12:13.084Z,991.10
2019-04-16T07:13:13.081Z,991.13
2019-04-16T07:14:15.576Z,991.00
2019-04-16T07:15:13.062Z,991.02
2019-04-16T07:16:13.021Z,991.10
2019-04-16T07:17:13.001Z,991.15
2019-04-16T07:18:12.992Z,991.10
2019-04-16T07:19:12.983Z,991.05
2019-04-16T07:20:14.122Z,991.00
2019-04-16T07:21:14.549Z,991.05
2019-04-16T07:22:12.962Z,990.99
2019-04-16T07:23:13.076Z,991.04
2019-04-16T07:24:12.945Z,991.07
2019-04-16T07:25:13.018Z,990.96
2019-04-16T07:26:14.617Z,990.95
2019-04-16T07:27:12.971Z,991.05
2019-04-16T07:28:12.917Z,990.99
2019-04-16T07:29:12.872Z,991.08
2019-04-16T07:30:12.877Z,990.97
2019-04-16T07:31:16.605Z,991.00
2019-04-16T07:32:13.899Z,990.97
2019-04-16T07:33:12.831Z,991.02
2019-04-16T07:34:12.927Z,991.03
2019-04-16T07:35:12.816Z,991.04
2019-04-16T07:36:12.798Z,991.00
2019-04-16T07:37:12.869Z,991.07
2019-04-16T07:38:12.790Z,990.97
2019-04-16T07:39:13.519Z,990.96
2019-04-16T07:40:13.752Z,990.94
2019-04-16T07:41:12.743Z,991.00
2019-04-16T07:42:18.559Z,991.05
2019-04-16T07:43:15.582Z,991.03
2019-04-16T07:44:12.718Z,990.98
2019-04-16T07:45:13.187Z,990.97
2019-04-16T07:46:12.692Z,990.97
2019-04-16T07:47:12.787Z,990.98
2019-04-16T07:48:12.683Z,990.92
2019-04-16T07:49:12.671Z,991.04
2019-04-16T07:50:12.665Z,991.00
2019-04-16T07:51:12.678Z,991.02
2019-04-16T07:52:12.659Z,990.98
2019-04-16T07:53:14.355Z,991.03
2019-04-16T07:54:12.675Z,990.96
2019-04-16T07:55:12.610Z,990.96
2019-04-16T07:56:12.595Z,991.00
2019-04-16T07:57:12.622Z,990.99
2019-04-16T07:58:12.573Z,991.02
2019-04-16T07:59:12.570Z,991.00
2019-04-16T08:00:12.545Z,991.03
2019-04-16T08:01:16.075Z,991.05
2019-04-16T08:02:12.527Z,991.03
2019-04-16T08:03:12.518Z,991.01
2019-04-16T08:04:12.509Z,990.95
2019-04-16T08:05:12.494Z,990.98
2019-04-16T08:06:14.391Z,990.99
2019-04-16T08:07:12.486Z,991.04
2019-04-16T08:08:12.492Z,991.05
2019-04-16T08:09:12.474Z,991.03
2019-04-16T08:10:12.442Z,991.12
2019-04-16T08:11:12.577Z,991.12
2019-04-16T08:12:28.953Z,991.10
2019-04-16T08:13:14.161Z,991.09
2019-04-16T08:14:14.634Z,991.14
2019-04-16T08:15:15.151Z,991.04
2019-04-16T08:16:12.374Z,991.03
2019-04-16T08:17:12.388Z,991.03
2019-04-16T08:18:12.355Z,990.99
2019-04-16T08:19:15.117Z,990.98
2019-04-16T08:20:12.337Z,990.99
2019-04-16T08:21:12.550Z,991.06
2019-04-16T08:22:15.463Z,991.10
2019-04-16T08:23:12.327Z,991.15
2019-04-16T08:24:12.470Z,991.17
2019-04-16T08:25:12.286Z,991.10
2019-04-16T08:26:13.657Z,991.13
2019-04-16T08:27:17.959Z,991.14
2019-04-16T08:28:13.259Z,991.14
2019-04-16T08:29:12.221Z,991.10
2019-04-16T08:30:12.227Z,991.14
2019-04-16T08:31:13.260Z,991.17
2019-04-16T08:32:12.896Z,991.21
2019-04-16T08:33:12.200Z,991.20
2019-04-16T08:34:12.174Z,991.24
2019-04-16T08:35:12.268Z,991.15
2019-04-16T08:36:12.158Z,991.20
2019-04-16T08:37:12.162Z,991.18
2019-04-16T08:38:12.150Z,991.14
2019-04-16T08:39:12.133Z,991.17
2019-04-16T08:40:13.120Z,991.14
2019-04-16T08:41:13.213Z,991.19
2019-04-16T08:42:12.102Z,991.23
2019-04-16T08:43:12.092Z,991.19
2019-04-16T08:44:12.070Z,991.21
2019-04-16T08:45:12.183Z,991.24
2019-04-16T08:46:12.046Z,991.16
2019-04-16T08:47:12.957Z,991.20
2019-04-16T08:48:17.295Z,991.26
2019-04-16T08:49:14.787Z,991.23
2019-04-16T08:50:12.602Z,991.23
2019-04-16T08:51:11.985Z,991.24
2019-04-16T08:52:12.010Z,991.19
2019-04-16T08:53:14.240Z,991.16
2019-04-16T08:54:11.973Z,991.18
2019-04-16T08:55:11.959Z,991.15
2019-04-16T08:56:12.124Z,991.19
2019-04-16T08:57:11.930Z,991.15
2019-04-16T08:58:12.862Z,991.15
2019-04-16T08:59:11.938Z,991.21
2019-04-16T09:00:15.241Z,991.12
2019-04-16T09:01:11.889Z,991.19
2019-04-16T09:02:11.896Z,991.17
2019-04-16T09:03:15.190Z,991.18
2019-04-16T09:04:11.869Z,991.26
2019-04-16T09:05:11.911Z,991.12
2019-04-16T09:06:13.471Z,991.18
2019-04-16T09:07:13.149Z,991.22
2019-04-16T09:08:13.751Z,991.19
2019-04-16T09:09:16.604Z,991.04
2019-04-16T09:10:18.241Z,991.08
2019-04-16T09:11:23.246Z,991.14
2019-04-16T09:12:12.781Z,991.07
2019-04-16T09:13:11.788Z,991.16
2019-04-16T09:14:11.846Z,991.17
2019-04-16T09:15:11.754Z,991.14
2019-04-16T09:16:11.728Z,991.12
2019-04-16T09:17:11.712Z,991.18
2019-04-16T09:18:11.737Z,991.14
2019-04-16T09:19:11.704Z,991.18
2019-04-16T09:20:11.690Z,991.17
2019-04-16T09:21:11.776Z,991.22
2019-04-16T09:22:15.549Z,991.18
2019-04-16T09:23:12.684Z,991.09
2019-04-16T09:24:11.642Z,991.16
2019-04-16T09:25:13.598Z,991.26
2019-04-16T09:26:15.203Z,991.37
2019-04-16T09:27:13.430Z,991.32
2019-04-16T09:28:24.506Z,991.22
2019-04-16T09:29:12.590Z,991.24
2019-04-16T09:30:16.879Z,991.22
2019-04-16T09:31:12.566Z,991.15
2019-04-16T09:32:11.559Z,991.08
2019-04-16T09:33:11.584Z,991.07
2019-04-16T09:34:11.676Z,991.09
2019-04-16T09:35:18.101Z,991.11
2019-04-16T09:36:12.531Z,991.15
2019-04-16T09:37:11.548Z,991.15
2019-04-16T09:38:13.116Z,991.10
2019-04-16T09:39:11.505Z,991.14
2019-04-16T09:40:18.004Z,991.17
2019-04-16T09:41:12.823Z,991.16
2019-04-16T09:42:11.454Z,991.22
2019-04-16T09:43:17.599Z,991.28
2019-04-16T09:44:12.812Z,991.24
2019-04-16T09:45:11.423Z,991.20
2019-04-16T09:46:17.647Z,991.35
2019-04-16T09:47:12.428Z,991.29
2019-04-16T09:48:11.427Z,991.23
2019-04-16T09:49:11.387Z,991.22
2019-04-16T09:50:11.611Z,991.05
2019-04-16T09:51:11.363Z,991.08
2019-04-16T09:52:11.366Z,991.05
2019-04-16T09:53:11.366Z,991.00
2019-04-16T09:54:13.455Z,991.09
2019-04-16T09:55:11.331Z,991.19
2019-04-16T09:56:11.317Z,991.26
2019-04-16T09:57:11.281Z,991.33
2019-04-16T09:58:11.315Z,991.39
2019-04-16T09:59:15.825Z,991.37
2019-04-16T10:00:12.267Z,991.28
2019-04-16T10:01:11.257Z,991.27
2019-04-16T10:02:11.248Z,991.20
2019-04-16T10:03:11.220Z,991.24
2019-04-16T10:04:11.235Z,991.14
2019-04-16T10:05:11.254Z,991.18
2019-04-16T10:06:11.197Z,991.06
2019-04-16T10:07:11.224Z,991.16
2019-04-16T10:08:12.606Z,991.11
2019-04-16T10:09:11.172Z,991.09
2019-04-16T10:10:11.176Z,991.10
2019-04-16T10:11:11.144Z,991.12
2019-04-16T10:12:11.147Z,991.11
2019-04-16T10:13:11.115Z,991.22
2019-04-16T10:14:11.323Z,991.15
2019-04-16T10:15:11.216Z,991.21
2019-04-16T10:16:13.543Z,991.16
2019-04-16T10:17:11.087Z,991.12
2019-04-16T10:18:11.096Z,991.18
2019-04-16T10:19:11.070Z,991.15
2019-04-16T10:20:11.066Z,991.28
2019-04-16T10:21:11.074Z,991.21
2019-04-16T10:22:11.029Z,991.07
2019-04-16T10:23:11.069Z,991.20
2019-04-16T10:24:13.170Z,991.22
2019-04-16T10:25:11.042Z,991.30
2019-04-16T10:26:10.996Z,991.29
2019-04-16T10:27:10.988Z,991.29
2019-04-16T10:28:10.960Z,991.30
2019-04-16T10:29:10.983Z,991.07
2019-04-16T10:30:10.975Z,991.14
2019-04-16T10:31:11.014Z,991.07
2019-04-16T10:32:10.920Z,991.06
2019-04-16T10:33:10.931Z,991.10
2019-04-16T10:34:10.929Z,991.17
2019-04-16T10:35:10.888Z,991.04
2019-04-16T10:36:10.900Z,991.06
2019-04-16T10:37:10.933Z,991.06
2019-04-16T10:38:13.521Z,991.19
2019-04-16T10:39:10.872Z,991.16
2019-04-16T10:40:10.868Z,991.15
2019-04-16T10:41:10.822Z,991.06
2019-04-16T10:42:10.859Z,991.17
2019-04-16T10:43:10.828Z,991.08
2019-04-16T10:44:10.808Z,991.18
2019-04-16T10:45:10.810Z,991.09
2019-04-16T10:46:10.800Z,991.15
2019-04-16T10:47:12.428Z,991.09
2019-04-16T10:48:10.798Z,991.15
2019-04-16T10:49:10.771Z,991.19
2019-04-16T10:50:10.803Z,991.13
2019-04-16T10:51:15.297Z,991.11
2019-04-16T10:52:11.748Z,991.10
2019-04-16T10:53:10.700Z,991.05
2019-04-16T10:54:10.710Z,991.08
2019-04-16T10:55:12.240Z,991.14
2019-04-16T10:56:10.670Z,991.10
2019-04-16T10:57:10.711Z,991.00
2019-04-16T10:58:10.694Z,991.07
2019-04-16T10:59:10.678Z,991.05
2019-04-16T11:00:10.660Z,991.09
2019-04-16T11:01:10.633Z,991.02
2019-04-16T11:02:10.844Z,990.98
2019-04-16T11:03:10.632Z,990.97
2019-04-16T11:04:10.624Z,990.89
2019-04-16T11:05:10.644Z,990.89
2019-04-16T11:06:10.634Z,990.97
2019-04-16T11:07:10.584Z,990.90
2019-04-16T11:08:10.559Z,990.95
2019-04-16T11:09:10.563Z,990.85
2019-04-16T11:10:11.901Z,990.88
2019-04-16T11:11:10.593Z,990.93
2019-04-16T11:12:10.512Z,990.90
2019-04-16T11:13:10.530Z,990.88
2019-04-16T11:14:10.542Z,990.82
2019-04-16T11:15:10.494Z,990.82
2019-04-16T11:16:10.490Z,990.87
2019-04-16T11:17:10.480Z,990.96
2019-04-16T11:18:10.450Z,990.88
2019-04-16T11:19:10.468Z,990.87
2019-04-16T11:20:10.447Z,990.86
2019-04-16T11:21:10.545Z,990.87
2019-04-16T11:22:10.449Z,990.82
2019-04-16T11:23:10.407Z,990.83
2019-04-16T11:24:10.387Z,990.83
2019-04-16T11:25:10.391Z,990.81
2019-04-16T11:26:10.376Z,990.89
2019-04-16T11:27:10.496Z,990.90
2019-04-16T11:28:13.716Z,990.85
2019-04-16T11:29:10.339Z,990.90
2019-04-16T11:30:10.435Z,990.88
2019-04-16T11:31:10.631Z,990.83
2019-04-16T11:32:10.305Z,990.89
2019-04-16T11:33:10.292Z,990.86
2019-04-16T11:34:10.293Z,990.84
2019-04-16T11:35:13.388Z,990.83
2019-04-16T11:36:19.585Z,990.81
2019-04-16T11:37:11.286Z,990.87
2019-04-16T11:38:10.250Z,990.75
2019-04-16T11:39:10.386Z,990.80
2019-04-16T11:40:10.543Z,990.88
2019-04-16T11:41:10.253Z,990.85
2019-04-16T11:42:10.200Z,990.79
2019-04-16T11:43:10.214Z,990.76
2019-04-16T11:44:15.618Z,990.76
2019-04-16T11:45:11.166Z,990.76
2019-04-16T11:46:10.209Z,990.75
2019-04-16T11:47:10.182Z,990.78
2019-04-16T11:48:10.251Z,990.74
2019-04-16T11:49:10.245Z,990.74
2019-04-16T11:50:10.175Z,990.74
2019-04-16T11:51:10.181Z,990.83
2019-04-16T11:52:10.206Z,990.78
2019-04-16T11:53:10.145Z,990.78
2019-04-16T11:54:11.827Z,990.69
2019-04-16T11:55:10.080Z,990.73
2019-04-16T11:56:10.125Z,990.72
2019-04-16T11:57:13.008Z,990.73
2019-04-16T11:58:10.190Z,990.73
2019-04-16T11:59:10.020Z,990.72
2019-04-16T12:00:10.087Z,990.73
2019-04-16T12:01:10.282Z,990.78
2019-04-16T12:02:10.067Z,990.81
2019-04-16T12:03:10.181Z,990.85
2019-04-16T12:04:10.934Z,990.85
2019-04-16T12:05:10.023Z,990.79
2019-04-16T12:06:10.167Z,990.83
2019-04-16T12:07:09.958Z,990.90
2019-04-16T12:08:09.939Z,990.73
2019-04-16T12:09:09.931Z,990.77
2019-04-16T12:10:09.943Z,990.68
2019-04-16T12:11:09.932Z,990.65
2019-04-16T12:12:09.947Z,990.70
2019-04-16T12:13:09.905Z,990.69
2019-04-16T12:14:10.427Z,990.72
2019-04-16T12:15:09.851Z,990.73
2019-04-16T12:16:09.885Z,990.72
2019-04-16T12:17:09.845Z,990.64
2019-04-16T12:18:09.849Z,990.68
2019-04-16T12:19:09.936Z,990.66
2019-04-16T12:20:09.867Z,990.72
2019-04-16T12:21:10.193Z,990.71
2019-04-16T12:22:09.865Z,990.70
2019-04-16T12:23:09.793Z,990.75
2019-04-16T12:24:09.763Z,990.81
2019-04-16T12:25:09.760Z,990.78
2019-04-16T12:26:10.006Z,990.74
2019-04-16T12:27:09.747Z,990.77
2019-04-16T12:28:12.577Z,990.78